sensor_id;sensor_type;location;lat;lon;timestamp;temperature;humidity
80743;SHT31;70142;50.894;6.052;2024-03-08T00:02:22;5.27;65.90
80743;SHT31;70142;50.894;6.052;2024-03-08T00:04:56;5.24;66.07
80743;SHT31;70142;50.894;6.052;2024-03-08T00:07:29;5.20;65.98
80743;SHT31;70142;50.894;6.052;2024-03-08T00:10:05;5.18;66.10
80743;SHT31;70142;50.894;6.052;2024-03-08T00:12:40;5.15;66.31
80743;SHT31;70142;50.894;6.052;2024-03-08T00:15:15;5.11;66.37
80743;SHT31;70142;50.894;6.052;2024-03-08T00:17:51;5.07;66.38
80743;SHT31;70142;50.894;6.052;2024-03-08T00:20:26;5.12;66.38
80743;SHT31;70142;50.894;6.052;2024-03-08T00:22:59;5.11;66.14
80743;SHT31;70142;50.894;6.052;2024-03-08T00:25:34;5.11;66.19
80743;SHT31;70142;50.894;6.052;2024-03-08T00:28:08;5.07;66.20
80743;SHT31;70142;50.894;6.052;2024-03-08T00:30:45;5.04;66.42
80743;SHT31;70142;50.894;6.052;2024-03-08T00:33:18;5.02;66.29
80743;SHT31;70142;50.894;6.052;2024-03-08T00:35:52;5.01;66.46
80743;SHT31;70142;50.894;6.052;2024-03-08T00:38:25;4.98;66.61
80743;SHT31;70142;50.894;6.052;2024-03-08T00:41:00;4.92;66.58
80743;SHT31;70142;50.894;6.052;2024-03-08T00:43:36;4.87;66.79
80743;SHT31;70142;50.894;6.052;2024-03-08T00:46:09;4.90;66.70
80743;SHT31;70142;50.894;6.052;2024-03-08T00:48:43;4.84;66.73
80743;SHT31;70142;50.894;6.052;2024-03-08T00:51:16;4.84;67.04
80743;SHT31;70142;50.894;6.052;2024-03-08T00:53:50;4.83;66.97
80743;SHT31;70142;50.894;6.052;2024-03-08T00:56:24;4.83;66.96
80743;SHT31;70142;50.894;6.052;2024-03-08T00:58:58;4.79;67.05
80743;SHT31;70142;50.894;6.052;2024-03-08T01:01:31;4.79;67.05
80743;SHT31;70142;50.894;6.052;2024-03-08T01:04:04;4.74;67.34
80743;SHT31;70142;50.894;6.052;2024-03-08T01:06:38;4.69;67.48
80743;SHT31;70142;50.894;6.052;2024-03-08T01:09:12;4.69;67.62
80743;SHT31;70142;50.894;6.052;2024-03-08T01:11:46;4.67;67.37
80743;SHT31;70142;50.894;6.052;2024-03-08T01:14:20;4.64;67.52
80743;SHT31;70142;50.894;6.052;2024-03-08T01:16:54;4.64;67.23
80743;SHT31;70142;50.894;6.052;2024-03-08T01:19:28;4.61;67.19
80743;SHT31;70142;50.894;6.052;2024-03-08T01:22:05;4.66;67.27
80743;SHT31;70142;50.894;6.052;2024-03-08T01:24:39;4.57;67.40
80743;SHT31;70142;50.894;6.052;2024-03-08T01:27:14;4.50;67.74
80743;SHT31;70142;50.894;6.052;2024-03-08T01:29:47;4.49;67.71
80743;SHT31;70142;50.894;6.052;2024-03-08T01:32:21;4.49;67.78
80743;SHT31;70142;50.894;6.052;2024-03-08T01:34:55;4.53;67.63
80743;SHT31;70142;50.894;6.052;2024-03-08T01:37:28;4.46;67.84
80743;SHT31;70142;50.894;6.052;2024-03-08T01:40:01;4.43;67.57
80743;SHT31;70142;50.894;6.052;2024-03-08T01:42:37;4.45;67.72
80743;SHT31;70142;50.894;6.052;2024-03-08T01:45:10;4.42;67.87
80743;SHT31;70142;50.894;6.052;2024-03-08T01:47:43;4.39;67.83
80743;SHT31;70142;50.894;6.052;2024-03-08T01:50:20;4.33;67.94
80743;SHT31;70142;50.894;6.052;2024-03-08T01:52:53;4.33;67.95
80743;SHT31;70142;50.894;6.052;2024-03-08T01:55:29;4.32;68.03
80743;SHT31;70142;50.894;6.052;2024-03-08T01:58:05;4.23;68.21
80743;SHT31;70142;50.894;6.052;2024-03-08T02:00:41;4.23;68.42
80743;SHT31;70142;50.894;6.052;2024-03-08T02:03:15;4.19;68.40
80743;SHT31;70142;50.894;6.052;2024-03-08T02:05:49;4.17;68.52
80743;SHT31;70142;50.894;6.052;2024-03-08T02:08:23;4.12;68.77
80743;SHT31;70142;50.894;6.052;2024-03-08T02:10:56;4.07;68.82
80743;SHT31;70142;50.894;6.052;2024-03-08T02:13:31;4.05;68.94
80743;SHT31;70142;50.894;6.052;2024-03-08T02:16:06;4.03;69.04
80743;SHT31;70142;50.894;6.052;2024-03-08T02:18:40;4.01;69.07
80743;SHT31;70142;50.894;6.052;2024-03-08T02:21:17;3.98;69.27
80743;SHT31;70142;50.894;6.052;2024-03-08T02:23:51;3.96;69.16
80743;SHT31;70142;50.894;6.052;2024-03-08T02:26:24;3.95;69.18
80743;SHT31;70142;50.894;6.052;2024-03-08T02:28:58;3.94;69.33
80743;SHT31;70142;50.894;6.052;2024-03-08T02:31:31;3.85;69.58
80743;SHT31;70142;50.894;6.052;2024-03-08T02:34:05;3.82;69.57
80743;SHT31;70142;50.894;6.052;2024-03-08T02:36:39;3.82;69.69
80743;SHT31;70142;50.894;6.052;2024-03-08T02:39:13;3.85;69.74
80743;SHT31;70142;50.894;6.052;2024-03-08T02:41:47;3.79;69.72
80743;SHT31;70142;50.894;6.052;2024-03-08T02:44:20;3.82;69.82
80743;SHT31;70142;50.894;6.052;2024-03-08T02:46:54;3.77;69.92
80743;SHT31;70142;50.894;6.052;2024-03-08T02:49:28;3.78;69.93
80743;SHT31;70142;50.894;6.052;2024-03-08T02:52:03;3.79;70.06
80743;SHT31;70142;50.894;6.052;2024-03-08T02:54:36;3.79;70.06
80743;SHT31;70142;50.894;6.052;2024-03-08T02:57:10;3.78;70.06
80743;SHT31;70142;50.894;6.052;2024-03-08T02:59:44;3.75;70.08
80743;SHT31;70142;50.894;6.052;2024-03-08T03:02:17;3.72;70.11
80743;SHT31;70142;50.894;6.052;2024-03-08T03:04:51;3.77;70.06
80743;SHT31;70142;50.894;6.052;2024-03-08T03:07:25;3.71;70.30
80743;SHT31;70142;50.894;6.052;2024-03-08T03:09:59;3.67;70.32
80743;SHT31;70142;50.894;6.052;2024-03-08T03:12:33;3.72;70.31
80743;SHT31;70142;50.894;6.052;2024-03-08T03:15:07;3.68;70.37
80743;SHT31;70142;50.894;6.052;2024-03-08T03:17:40;3.65;70.42
80743;SHT31;70142;50.894;6.052;2024-03-08T03:20:14;3.64;70.46
80743;SHT31;70142;50.894;6.052;2024-03-08T03:22:55;3.63;70.63
80743;SHT31;70142;50.894;6.052;2024-03-08T03:25:29;3.61;70.62
80743;SHT31;70142;50.894;6.052;2024-03-08T03:28:07;3.58;70.58
80743;SHT31;70142;50.894;6.052;2024-03-08T03:30:44;3.54;70.81
80743;SHT31;70142;50.894;6.052;2024-03-08T03:33:18;3.51;70.91
80743;SHT31;70142;50.894;6.052;2024-03-08T03:35:53;3.51;70.92
80743;SHT31;70142;50.894;6.052;2024-03-08T03:38:27;3.53;70.95
80743;SHT31;70142;50.894;6.052;2024-03-08T03:41:01;3.53;70.89
80743;SHT31;70142;50.894;6.052;2024-03-08T03:43:42;3.55;70.87
80743;SHT31;70142;50.894;6.052;2024-03-08T03:46:18;3.51;70.76
80743;SHT31;70142;50.894;6.052;2024-03-08T03:48:51;3.53;70.86
80743;SHT31;70142;50.894;6.052;2024-03-08T03:51:25;3.45;71.07
80743;SHT31;70142;50.894;6.052;2024-03-08T03:53:59;3.41;71.16
80743;SHT31;70142;50.894;6.052;2024-03-08T03:56:35;3.43;71.13
80743;SHT31;70142;50.894;6.052;2024-03-08T03:59:09;3.45;71.05
80743;SHT31;70142;50.894;6.052;2024-03-08T04:01:42;3.47;71.10
80743;SHT31;70142;50.894;6.052;2024-03-08T04:04:19;3.40;71.41
80743;SHT31;70142;50.894;6.052;2024-03-08T04:06:52;3.35;71.33
80743;SHT31;70142;50.894;6.052;2024-03-08T04:09:26;3.35;71.29
80743;SHT31;70142;50.894;6.052;2024-03-08T04:12:00;3.33;71.51
80743;SHT31;70142;50.894;6.052;2024-03-08T04:14:34;3.30;71.58
80743;SHT31;70142;50.894;6.052;2024-03-08T04:17:07;3.23;71.69
80743;SHT31;70142;50.894;6.052;2024-03-08T04:19:42;3.27;71.70
80743;SHT31;70142;50.894;6.052;2024-03-08T04:22:15;3.24;71.63
80743;SHT31;70142;50.894;6.052;2024-03-08T04:24:51;3.24;71.73
80743;SHT31;70142;50.894;6.052;2024-03-08T04:27:24;3.23;71.73
80743;SHT31;70142;50.894;6.052;2024-03-08T04:29:57;3.24;71.56
80743;SHT31;70142;50.894;6.052;2024-03-08T04:32:31;3.21;71.76
80743;SHT31;70142;50.894;6.052;2024-03-08T04:35:05;3.20;71.69
80743;SHT31;70142;50.894;6.052;2024-03-08T04:37:39;3.20;71.78
80743;SHT31;70142;50.894;6.052;2024-03-08T04:40:16;3.16;71.94
80743;SHT31;70142;50.894;6.052;2024-03-08T04:42:52;3.10;71.99
80743;SHT31;70142;50.894;6.052;2024-03-08T04:45:25;3.13;72.16
80743;SHT31;70142;50.894;6.052;2024-03-08T04:47:59;3.11;72.07
80743;SHT31;70142;50.894;6.052;2024-03-08T04:50:33;3.11;72.06
80743;SHT31;70142;50.894;6.052;2024-03-08T04:53:06;3.06;72.00
80743;SHT31;70142;50.894;6.052;2024-03-08T04:55:41;3.06;72.13
80743;SHT31;70142;50.894;6.052;2024-03-08T04:58:14;3.09;72.21
80743;SHT31;70142;50.894;6.052;2024-03-08T05:00:48;3.09;72.20
80743;SHT31;70142;50.894;6.052;2024-03-08T05:03:22;3.10;72.07
80743;SHT31;70142;50.894;6.052;2024-03-08T05:05:58;3.04;72.21
80743;SHT31;70142;50.894;6.052;2024-03-08T05:08:32;3.04;72.18
80743;SHT31;70142;50.894;6.052;2024-03-08T05:11:06;3.00;72.51
80743;SHT31;70142;50.894;6.052;2024-03-08T05:13:42;2.99;72.46
80743;SHT31;70142;50.894;6.052;2024-03-08T05:16:17;2.97;72.53
80743;SHT31;70142;50.894;6.052;2024-03-08T05:18:50;2.99;72.50
80743;SHT31;70142;50.894;6.052;2024-03-08T05:21:24;3.06;72.23
80743;SHT31;70142;50.894;6.052;2024-03-08T05:23:57;3.01;72.26
80743;SHT31;70142;50.894;6.052;2024-03-08T05:26:32;2.99;72.30
80743;SHT31;70142;50.894;6.052;2024-03-08T05:29:05;2.99;72.35
80743;SHT31;70142;50.894;6.052;2024-03-08T05:31:47;2.99;72.22
80743;SHT31;70142;50.894;6.052;2024-03-08T05:34:21;3.03;72.34
80743;SHT31;70142;50.894;6.052;2024-03-08T05:36:55;2.99;72.36
80743;SHT31;70142;50.894;6.052;2024-03-08T05:39:30;2.95;72.52
80743;SHT31;70142;50.894;6.052;2024-03-08T05:42:07;2.96;72.40
80743;SHT31;70142;50.894;6.052;2024-03-08T05:44:41;2.93;72.68
80743;SHT31;70142;50.894;6.052;2024-03-08T05:47:15;2.90;72.74
80743;SHT31;70142;50.894;6.052;2024-03-08T05:49:50;2.90;72.59
80743;SHT31;70142;50.894;6.052;2024-03-08T05:52:25;2.96;72.37
80743;SHT31;70142;50.894;6.052;2024-03-08T05:54:58;2.95;72.38
80743;SHT31;70142;50.894;6.052;2024-03-08T05:57:33;2.93;72.47
80743;SHT31;70142;50.894;6.052;2024-03-08T06:00:10;2.93;72.39
80743;SHT31;70142;50.894;6.052;2024-03-08T06:02:44;2.93;72.28
80743;SHT31;70142;50.894;6.052;2024-03-08T06:05:17;2.93;72.36
80743;SHT31;70142;50.894;6.052;2024-03-08T06:07:51;2.95;72.20
80743;SHT31;70142;50.894;6.052;2024-03-08T06:10:25;2.90;72.27
80743;SHT31;70142;50.894;6.052;2024-03-08T06:13:00;2.90;72.23
80743;SHT31;70142;50.894;6.052;2024-03-08T06:15:33;2.93;72.23
80743;SHT31;70142;50.894;6.052;2024-03-08T06:18:06;2.92;72.25
80743;SHT31;70142;50.894;6.052;2024-03-08T06:20:42;2.90;72.20
80743;SHT31;70142;50.894;6.052;2024-03-08T06:23:18;2.95;72.14
80743;SHT31;70142;50.894;6.052;2024-03-08T06:25:51;2.89;72.20
80743;SHT31;70142;50.894;6.052;2024-03-08T06:28:26;2.97;72.09
80743;SHT31;70142;50.894;6.052;2024-03-08T06:30:59;2.95;72.20
80743;SHT31;70142;50.894;6.052;2024-03-08T06:33:32;2.93;72.18
80743;SHT31;70142;50.894;6.052;2024-03-08T06:36:08;2.89;72.15
80743;SHT31;70142;50.894;6.052;2024-03-08T06:38:43;2.92;72.32
80743;SHT31;70142;50.894;6.052;2024-03-08T06:41:18;2.89;72.32
80743;SHT31;70142;50.894;6.052;2024-03-08T06:43:53;2.95;72.22
80743;SHT31;70142;50.894;6.052;2024-03-08T06:46:29;2.99;72.27
80743;SHT31;70142;50.894;6.052;2024-03-08T06:49:03;2.95;72.29
80743;SHT31;70142;50.894;6.052;2024-03-08T06:51:37;3.09;72.06
80743;SHT31;70142;50.894;6.052;2024-03-08T06:54:13;3.16;71.74
80743;SHT31;70142;50.894;6.052;2024-03-08T06:56:46;3.17;71.61
80743;SHT31;70142;50.894;6.052;2024-03-08T06:59:21;3.26;71.53
80743;SHT31;70142;50.894;6.052;2024-03-08T07:01:56;3.23;71.53
80743;SHT31;70142;50.894;6.052;2024-03-08T07:04:31;3.28;71.16
80743;SHT31;70142;50.894;6.052;2024-03-08T07:07:06;3.34;71.28
80743;SHT31;70142;50.894;6.052;2024-03-08T07:09:44;3.45;70.97
80743;SHT31;70142;50.894;6.052;2024-03-08T07:12:20;3.53;70.79
80743;SHT31;70142;50.894;6.052;2024-03-08T07:14:56;3.63;70.48
80743;SHT31;70142;50.894;6.052;2024-03-08T07:17:30;3.63;70.27
80743;SHT31;70142;50.894;6.052;2024-03-08T07:20:03;3.64;70.52
80743;SHT31;70142;50.894;6.052;2024-03-08T07:22:42;3.71;70.32
80743;SHT31;70142;50.894;6.052;2024-03-08T07:25:19;3.75;70.13
80743;SHT31;70142;50.894;6.052;2024-03-08T07:27:55;3.67;70.13
80743;SHT31;70142;50.894;6.052;2024-03-08T07:30:30;3.72;70.42
80743;SHT31;70142;50.894;6.052;2024-03-08T07:33:18;3.81;70.11
80743;SHT31;70142;50.894;6.052;2024-03-08T07:35:51;3.86;69.77
80743;SHT31;70142;50.894;6.052;2024-03-08T07:38:24;3.92;70.17
80743;SHT31;70142;50.894;6.052;2024-03-08T07:40:58;3.89;70.03
80743;SHT31;70142;50.894;6.052;2024-03-08T07:43:33;4.05;69.65
80743;SHT31;70142;50.894;6.052;2024-03-08T07:46:07;4.07;69.53
80743;SHT31;70142;50.894;6.052;2024-03-08T07:48:42;4.15;69.60
80743;SHT31;70142;50.894;6.052;2024-03-08T07:51:17;4.19;69.36
80743;SHT31;70142;50.894;6.052;2024-03-08T07:53:51;4.29;69.13
80743;SHT31;70142;50.894;6.052;2024-03-08T07:56:24;4.36;68.89
80743;SHT31;70142;50.894;6.052;2024-03-08T07:58:57;4.29;69.00
80743;SHT31;70142;50.894;6.052;2024-03-08T08:01:32;4.32;69.17
80743;SHT31;70142;50.894;6.052;2024-03-08T08:04:08;4.30;69.11
80743;SHT31;70142;50.894;6.052;2024-03-08T08:06:44;4.36;69.32
80743;SHT31;70142;50.894;6.052;2024-03-08T08:09:17;4.37;68.92
80743;SHT31;70142;50.894;6.052;2024-03-08T08:12:00;4.47;68.97
80743;SHT31;70142;50.894;6.052;2024-03-08T08:14:35;4.49;68.79
80743;SHT31;70142;50.894;6.052;2024-03-08T08:17:09;4.64;68.63
80743;SHT31;70142;50.894;6.052;2024-03-08T08:19:44;4.59;68.53
80743;SHT31;70142;50.894;6.052;2024-03-08T08:22:17;4.69;68.81
80743;SHT31;70142;50.894;6.052;2024-03-08T08:24:51;4.74;68.56
80743;SHT31;70142;50.894;6.052;2024-03-08T08:27:25;4.88;68.08
80743;SHT31;70142;50.894;6.052;2024-03-08T08:29:59;4.91;68.30
80743;SHT31;70142;50.894;6.052;2024-03-08T08:32:34;5.08;67.97
80743;SHT31;70142;50.894;6.052;2024-03-08T08:35:08;5.01;67.86
80743;SHT31;70142;50.894;6.052;2024-03-08T08:37:44;5.02;67.78
80743;SHT31;70142;50.894;6.052;2024-03-08T08:40:18;4.94;67.67
80743;SHT31;70142;50.894;6.052;2024-03-08T08:42:51;5.15;67.49
80743;SHT31;70142;50.894;6.052;2024-03-08T08:45:25;5.25;67.09
80743;SHT31;70142;50.894;6.052;2024-03-08T08:48:00;5.36;66.89
80743;SHT31;70142;50.894;6.052;2024-03-08T08:50:34;5.30;67.14
80743;SHT31;70142;50.894;6.052;2024-03-08T08:53:08;5.34;66.76
80743;SHT31;70142;50.894;6.052;2024-03-08T08:55:42;5.53;66.77
80743;SHT31;70142;50.894;6.052;2024-03-08T08:58:17;5.76;66.42
80743;SHT31;70142;50.894;6.052;2024-03-08T09:00:51;5.92;65.93
80743;SHT31;70142;50.894;6.052;2024-03-08T09:03:26;5.90;65.99
80743;SHT31;70142;50.894;6.052;2024-03-08T09:06:01;5.77;65.97
80743;SHT31;70142;50.894;6.052;2024-03-08T09:08:36;5.82;65.65
80743;SHT31;70142;50.894;6.052;2024-03-08T09:11:09;5.72;66.21
80743;SHT31;70142;50.894;6.052;2024-03-08T09:13:44;5.89;65.70
80743;SHT31;70142;50.894;6.052;2024-03-08T09:16:18;5.92;65.62
80743;SHT31;70142;50.894;6.052;2024-03-08T09:18:52;6.17;65.72
80743;SHT31;70142;50.894;6.052;2024-03-08T09:21:26;6.23;65.06
80743;SHT31;70142;50.894;6.052;2024-03-08T09:24:00;6.40;65.17
80743;SHT31;70142;50.894;6.052;2024-03-08T09:26:33;6.45;64.30
80743;SHT31;70142;50.894;6.052;2024-03-08T09:29:06;6.47;64.19
80743;SHT31;70142;50.894;6.052;2024-03-08T09:31:39;6.52;64.04
80743;SHT31;70142;50.894;6.052;2024-03-08T09:34:14;6.63;63.96
80743;SHT31;70142;50.894;6.052;2024-03-08T09:36:56;6.74;63.45
80743;SHT31;70142;50.894;6.052;2024-03-08T09:39:29;6.79;63.90
80743;SHT31;70142;50.894;6.052;2024-03-08T09:42:05;6.64;63.58
80743;SHT31;70142;50.894;6.052;2024-03-08T09:44:38;6.79;63.78
80743;SHT31;70142;50.894;6.052;2024-03-08T09:47:13;6.87;63.66
80743;SHT31;70142;50.894;6.052;2024-03-08T09:49:48;7.01;63.90
80743;SHT31;70142;50.894;6.052;2024-03-08T09:52:22;7.08;63.72
80743;SHT31;70142;50.894;6.052;2024-03-08T09:54:55;7.22;62.81
80743;SHT31;70142;50.894;6.052;2024-03-08T09:57:28;7.20;62.51
80743;SHT31;70142;50.894;6.052;2024-03-08T10:00:02;7.37;62.67
80743;SHT31;70142;50.894;6.052;2024-03-08T10:02:45;7.59;62.59
80743;SHT31;70142;50.894;6.052;2024-03-08T10:05:19;7.54;61.81
80743;SHT31;70142;50.894;6.052;2024-03-08T10:07:53;7.53;61.85
80743;SHT31;70142;50.894;6.052;2024-03-08T10:10:27;7.46;61.47
80743;SHT31;70142;50.894;6.052;2024-03-08T10:13:00;7.50;61.14
80743;SHT31;70142;50.894;6.052;2024-03-08T10:15:34;7.70;61.32
80743;SHT31;70142;50.894;6.052;2024-03-08T10:18:07;7.97;60.52
80743;SHT31;70142;50.894;6.052;2024-03-08T10:20:43;8.09;60.08
80743;SHT31;70142;50.894;6.052;2024-03-08T10:23:17;8.18;60.19
80743;SHT31;70142;50.894;6.052;2024-03-08T10:25:50;8.14;59.37
80743;SHT31;70142;50.894;6.052;2024-03-08T10:28:24;8.08;59.70
80743;SHT31;70142;50.894;6.052;2024-03-08T10:30:58;8.25;59.54
80743;SHT31;70142;50.894;6.052;2024-03-08T10:33:32;8.31;59.06
80743;SHT31;70142;50.894;6.052;2024-03-08T10:36:09;8.44;58.29
80743;SHT31;70142;50.894;6.052;2024-03-08T10:38:44;8.41;58.65
80743;SHT31;70142;50.894;6.052;2024-03-08T10:41:24;8.44;58.64
80743;SHT31;70142;50.894;6.052;2024-03-08T10:44:11;8.46;58.76
80743;SHT31;70142;50.894;6.052;2024-03-08T10:47:00;8.70;58.43
80743;SHT31;70142;50.894;6.052;2024-03-08T10:49:38;8.90;57.89
80743;SHT31;70142;50.894;6.052;2024-03-08T10:52:15;9.44;56.72
80743;SHT31;70142;50.894;6.052;2024-03-08T10:54:52;10.08;55.19
80743;SHT31;70142;50.894;6.052;2024-03-08T10:57:30;10.66;53.19
80743;SHT31;70142;50.894;6.052;2024-03-08T11:00:06;10.79;52.49
80743;SHT31;70142;50.894;6.052;2024-03-08T11:02:43;10.57;52.68
80743;SHT31;70142;50.894;6.052;2024-03-08T11:05:32;11.12;52.31
80743;SHT31;70142;50.894;6.052;2024-03-08T11:08:17;11.34;51.18
80743;SHT31;70142;50.894;6.052;2024-03-08T11:10:55;11.44;51.32
80743;SHT31;70142;50.894;6.052;2024-03-08T11:13:35;11.66;50.72
80743;SHT31;70142;50.894;6.052;2024-03-08T11:16:09;11.27;52.26
80743;SHT31;70142;50.894;6.052;2024-03-08T11:18:47;11.66;51.02
80743;SHT31;70142;50.894;6.052;2024-03-08T11:21:21;11.81;51.33
80743;SHT31;70142;50.894;6.052;2024-03-08T11:24:01;11.90;50.34
80743;SHT31;70142;50.894;6.052;2024-03-08T11:26:37;11.82;50.79
80743;SHT31;70142;50.894;6.052;2024-03-08T11:29:33;11.76;50.85
80743;SHT31;70142;50.894;6.052;2024-03-08T11:32:10;12.06;50.93
80743;SHT31;70142;50.894;6.052;2024-03-08T11:34:46;12.63;49.54
80743;SHT31;70142;50.894;6.052;2024-03-08T11:37:21;12.38;50.12
80743;SHT31;70142;50.894;6.052;2024-03-08T11:39:56;12.44;49.26
80743;SHT31;70142;50.894;6.052;2024-03-08T11:42:31;12.53;49.32
80743;SHT31;70142;50.894;6.052;2024-03-08T11:45:08;12.34;48.83
80743;SHT31;70142;50.894;6.052;2024-03-08T11:47:43;12.61;48.44
80743;SHT31;70142;50.894;6.052;2024-03-08T11:50:18;12.67;48.41
80743;SHT31;70142;50.894;6.052;2024-03-08T11:52:53;12.63;47.92
80743;SHT31;70142;50.894;6.052;2024-03-08T11:55:27;12.36;48.53
80743;SHT31;70142;50.894;6.052;2024-03-08T11:58:03;12.34;48.76
80743;SHT31;70142;50.894;6.052;2024-03-08T12:00:36;11.95;50.28
80743;SHT31;70142;50.894;6.052;2024-03-08T12:03:10;12.95;49.38
80743;SHT31;70142;50.894;6.052;2024-03-08T12:05:44;13.32;46.54
80743;SHT31;70142;50.894;6.052;2024-03-08T12:08:19;12.73;47.91
80743;SHT31;70142;50.894;6.052;2024-03-08T12:10:53;12.43;48.36
80743;SHT31;70142;50.894;6.052;2024-03-08T12:13:33;12.32;48.68
80743;SHT31;70142;50.894;6.052;2024-03-08T12:16:07;12.38;48.91
80743;SHT31;70142;50.894;6.052;2024-03-08T12:18:42;12.67;48.88
80743;SHT31;70142;50.894;6.052;2024-03-08T12:21:15;12.94;48.07
80743;SHT31;70142;50.894;6.052;2024-03-08T12:24:06;12.34;48.65
80743;SHT31;70142;50.894;6.052;2024-03-08T12:26:42;12.68;48.36
80743;SHT31;70142;50.894;6.052;2024-03-08T12:29:22;13.21;47.54
80743;SHT31;70142;50.894;6.052;2024-03-08T12:31:58;13.09;46.91
80743;SHT31;70142;50.894;6.052;2024-03-08T12:34:33;13.23;46.69
80743;SHT31;70142;50.894;6.052;2024-03-08T12:37:07;13.48;46.40
80743;SHT31;70142;50.894;6.052;2024-03-08T12:39:41;13.70;45.86
80743;SHT31;70142;50.894;6.052;2024-03-08T12:42:19;13.41;46.38
80743;SHT31;70142;50.894;6.052;2024-03-08T12:44:53;13.61;46.29
80743;SHT31;70142;50.894;6.052;2024-03-08T12:47:26;13.96;45.56
80743;SHT31;70142;50.894;6.052;2024-03-08T12:50:01;13.58;45.86
80743;SHT31;70142;50.894;6.052;2024-03-08T12:52:35;13.49;45.97
80743;SHT31;70142;50.894;6.052;2024-03-08T12:55:08;12.99;46.85
80743;SHT31;70142;50.894;6.052;2024-03-08T12:57:44;12.87;47.82
80743;SHT31;70142;50.894;6.052;2024-03-08T13:00:18;13.53;46.80
80743;SHT31;70142;50.894;6.052;2024-03-08T13:02:52;13.38;46.69
80743;SHT31;70142;50.894;6.052;2024-03-08T13:05:25;13.32;45.94
80743;SHT31;70142;50.894;6.052;2024-03-08T13:07:59;13.51;45.72
80743;SHT31;70142;50.894;6.052;2024-03-08T13:10:32;13.43;45.67
80743;SHT31;70142;50.894;6.052;2024-03-08T13:13:07;13.19;46.04
80743;SHT31;70142;50.894;6.052;2024-03-08T13:15:44;13.04;46.32
80743;SHT31;70142;50.894;6.052;2024-03-08T13:18:18;13.43;46.31
80743;SHT31;70142;50.894;6.052;2024-03-08T13:20:51;13.79;45.05
80743;SHT31;70142;50.894;6.052;2024-03-08T13:23:25;13.55;45.46
80743;SHT31;70142;50.894;6.052;2024-03-08T13:25:58;13.61;45.06
80743;SHT31;70142;50.894;6.052;2024-03-08T13:28:34;13.25;46.65
80743;SHT31;70142;50.894;6.052;2024-03-08T13:31:09;13.48;46.35
80743;SHT31;70142;50.894;6.052;2024-03-08T13:33:45;13.62;45.61
80743;SHT31;70142;50.894;6.052;2024-03-08T13:36:21;13.72;44.54
80743;SHT31;70142;50.894;6.052;2024-03-08T13:38:55;13.76;45.44
80743;SHT31;70142;50.894;6.052;2024-03-08T13:41:31;14.02;45.16
80743;SHT31;70142;50.894;6.052;2024-03-08T13:44:06;14.03;44.37
80743;SHT31;70142;50.894;6.052;2024-03-08T13:46:39;13.99;44.91
80743;SHT31;70142;50.894;6.052;2024-03-08T13:49:14;14.18;44.33
80743;SHT31;70142;50.894;6.052;2024-03-08T13:51:47;14.16;44.05
80743;SHT31;70142;50.894;6.052;2024-03-08T13:54:21;13.73;44.52
80743;SHT31;70142;50.894;6.052;2024-03-08T13:56:55;13.90;44.73
80743;SHT31;70142;50.894;6.052;2024-03-08T13:59:29;14.00;44.68
80743;SHT31;70142;50.894;6.052;2024-03-08T14:02:04;14.06;43.57
80743;SHT31;70142;50.894;6.052;2024-03-08T14:04:38;13.79;44.11
80743;SHT31;70142;50.894;6.052;2024-03-08T14:07:13;13.72;43.83
80743;SHT31;70142;50.894;6.052;2024-03-08T14:09:48;13.87;43.82
80743;SHT31;70142;50.894;6.052;2024-03-08T14:12:21;13.79;43.53
80743;SHT31;70142;50.894;6.052;2024-03-08T14:14:57;13.99;43.84
80743;SHT31;70142;50.894;6.052;2024-03-08T14:17:31;14.44;43.83
80743;SHT31;70142;50.894;6.052;2024-03-08T14:20:06;14.41;42.91
80743;SHT31;70142;50.894;6.052;2024-03-08T14:22:40;14.48;42.92
80743;SHT31;70142;50.894;6.052;2024-03-08T14:25:13;14.03;43.12
80743;SHT31;70142;50.894;6.052;2024-03-08T14:27:51;13.51;43.93
80743;SHT31;70142;50.894;6.052;2024-03-08T14:30:26;13.73;44.06
80743;SHT31;70142;50.894;6.052;2024-03-08T14:33:08;13.77;44.00
80743;SHT31;70142;50.894;6.052;2024-03-08T14:35:42;13.93;43.93
80743;SHT31;70142;50.894;6.052;2024-03-08T14:38:15;14.28;43.45
80743;SHT31;70142;50.894;6.052;2024-03-08T14:40:49;14.58;42.08
80743;SHT31;70142;50.894;6.052;2024-03-08T14:43:23;14.27;43.26
80743;SHT31;70142;50.894;6.052;2024-03-08T14:45:58;14.60;43.06
80743;SHT31;70142;50.894;6.052;2024-03-08T14:48:31;14.23;43.61
80743;SHT31;70142;50.894;6.052;2024-03-08T14:51:04;14.55;42.71
80743;SHT31;70142;50.894;6.052;2024-03-08T14:53:42;14.61;43.53
80743;SHT31;70142;50.894;6.052;2024-03-08T14:56:17;14.87;42.37
80743;SHT31;70142;50.894;6.052;2024-03-08T14:58:50;14.88;42.47
80743;SHT31;70142;50.894;6.052;2024-03-08T15:01:25;14.78;42.87
80743;SHT31;70142;50.894;6.052;2024-03-08T15:04:01;14.68;42.99
80743;SHT31;70142;50.894;6.052;2024-03-08T15:06:41;14.78;42.44
80743;SHT31;70142;50.894;6.052;2024-03-08T15:09:15;14.40;42.45
80743;SHT31;70142;50.894;6.052;2024-03-08T15:11:50;14.57;42.15
80743;SHT31;70142;50.894;6.052;2024-03-08T15:14:23;14.24;42.79
80743;SHT31;70142;50.894;6.052;2024-03-08T15:16:58;14.34;42.29
80743;SHT31;70142;50.894;6.052;2024-03-08T15:19:33;14.27;42.72
80743;SHT31;70142;50.894;6.052;2024-03-08T15:22:07;14.04;42.87
80743;SHT31;70142;50.894;6.052;2024-03-08T15:24:40;13.96;42.98
80743;SHT31;70142;50.894;6.052;2024-03-08T15:27:15;14.02;43.42
80743;SHT31;70142;50.894;6.052;2024-03-08T15:29:48;13.79;43.31
80743;SHT31;70142;50.894;6.052;2024-03-08T15:32:25;13.97;42.70
80743;SHT31;70142;50.894;6.052;2024-03-08T15:34:59;13.80;43.65
80743;SHT31;70142;50.894;6.052;2024-03-08T15:37:33;13.73;43.94
80743;SHT31;70142;50.894;6.052;2024-03-08T15:40:09;13.59;43.62
80743;SHT31;70142;50.894;6.052;2024-03-08T15:42:55;13.90;43.36
80743;SHT31;70142;50.894;6.052;2024-03-08T15:45:29;13.86;43.79
80743;SHT31;70142;50.894;6.052;2024-03-08T15:48:05;13.82;43.76
80743;SHT31;70142;50.894;6.052;2024-03-08T15:50:38;13.45;43.85
80743;SHT31;70142;50.894;6.052;2024-03-08T15:53:11;13.42;44.31
80743;SHT31;70142;50.894;6.052;2024-03-08T15:55:48;13.25;44.61
80743;SHT31;70142;50.894;6.052;2024-03-08T15:58:21;13.26;44.56
80743;SHT31;70142;50.894;6.052;2024-03-08T16:00:54;13.29;44.50
80743;SHT31;70142;50.894;6.052;2024-03-08T16:03:29;13.22;44.84
80743;SHT31;70142;50.894;6.052;2024-03-08T16:06:04;13.28;44.69
80743;SHT31;70142;50.894;6.052;2024-03-08T16:08:38;13.52;44.61
80743;SHT31;70142;50.894;6.052;2024-03-08T16:11:11;13.51;44.90
80743;SHT31;70142;50.894;6.052;2024-03-08T16:13:45;13.51;44.85
80743;SHT31;70142;50.894;6.052;2024-03-08T16:16:18;13.04;45.03
80743;SHT31;70142;50.894;6.052;2024-03-08T16:18:55;13.01;45.35
80743;SHT31;70142;50.894;6.052;2024-03-08T16:21:28;13.08;44.99
80743;SHT31;70142;50.894;6.052;2024-03-08T16:24:04;12.68;46.03
80743;SHT31;70142;50.894;6.052;2024-03-08T16:26:38;12.25;47.18
80743;SHT31;70142;50.894;6.052;2024-03-08T16:29:11;11.99;47.86